sensor_id;sensor_type;location;lat;lon;timestamp;P1;durP1;ratioP1;P2;durP2;ratioP2
76346;SDS011;73309;48.818;9.806;2023-12-29T00:01:53;1.80;;;1.70;;
76346;SDS011;73309;48.818;9.806;2023-12-29T00:04:18;1.87;;;1.73;;
76346;SDS011;73309;48.818;9.806;2023-12-29T00:06:43;1.70;;;1.60;;
76346;SDS011;73309;48.818;9.806;2023-12-29T00:09:09;2.00;;;1.80;;
76346;SDS011;73309;48.818;9.806;2023-12-29T00:11:35;1.50;;;1.40;;
76346;SDS011;73309;48.818;9.806;2023-12-29T00:14:01;1.97;;;1.77;;
76346;SDS011;73309;48.818;9.806;2023-12-29T00:16:27;1.80;;;1.60;;
76346;SDS011;73309;48.818;9.806;2023-12-29T00:18:52;1.80;;;1.70;;
76346;SDS011;73309;48.818;9.806;2023-12-29T00:21:17;1.70;;;1.60;;
76346;SDS011;73309;48.818;9.806;2023-12-29T00:23:43;1.93;;;1.80;;
76346;SDS011;73309;48.818;9.806;2023-12-29T00:26:08;1.63;;;1.53;;
76346;SDS011;73309;48.818;9.806;2023-12-29T00:28:35;1.80;;;1.70;;
76346;SDS011;73309;48.818;9.806;2023-12-29T00:31:00;1.90;;;1.70;;
76346;SDS011;73309;48.818;9.806;2023-12-29T00:33:26;1.73;;;1.60;;
76346;SDS011;73309;48.818;9.806;2023-12-29T00:35:51;2.13;;;1.70;;
76346;SDS011;73309;48.818;9.806;2023-12-29T00:38:17;2.63;;;1.90;;
76346;SDS011;73309;48.818;9.806;2023-12-29T00:40:42;1.77;;;1.67;;
76346;SDS011;73309;48.818;9.806;2023-12-29T00:43:08;1.90;;;1.70;;
76346;SDS011;73309;48.818;9.806;2023-12-29T00:45:34;2.03;;;1.57;;
76346;SDS011;73309;48.818;9.806;2023-12-29T00:48:00;1.83;;;1.67;;
76346;SDS011;73309;48.818;9.806;2023-12-29T00:50:25;1.80;;;1.70;;
76346;SDS011;73309;48.818;9.806;2023-12-29T00:52:51;1.77;;;1.67;;
76346;SDS011;73309;48.818;9.806;2023-12-29T00:55:16;1.73;;;1.63;;
76346;SDS011;73309;48.818;9.806;2023-12-29T00:57:41;2.07;;;1.83;;
76346;SDS011;73309;48.818;9.806;2023-12-29T01:00:07;2.07;;;1.87;;
76346;SDS011;73309;48.818;9.806;2023-12-29T01:02:37;2.10;;;1.67;;
76346;SDS011;73309;48.818;9.806;2023-12-29T01:05:03;1.70;;;1.60;;
76346;SDS011;73309;48.818;9.806;2023-12-29T01:07:29;1.97;;;1.67;;
76346;SDS011;73309;48.818;9.806;2023-12-29T01:09:54;2.00;;;1.80;;
76346;SDS011;73309;48.818;9.806;2023-12-29T01:12:20;1.80;;;1.70;;
76346;SDS011;73309;48.818;9.806;2023-12-29T01:14:45;1.97;;;1.83;;
76346;SDS011;73309;48.818;9.806;2023-12-29T01:17:10;2.00;;;1.80;;
76346;SDS011;73309;48.818;9.806;2023-12-29T01:19:37;1.70;;;1.60;;
76346;SDS011;73309;48.818;9.806;2023-12-29T01:22:03;1.80;;;1.70;;
76346;SDS011;73309;48.818;9.806;2023-12-29T01:24:28;1.97;;;1.70;;
76346;SDS011;73309;48.818;9.806;2023-12-29T01:26:54;1.80;;;1.70;;
76346;SDS011;73309;48.818;9.806;2023-12-29T01:29:19;1.80;;;1.70;;
76346;SDS011;73309;48.818;9.806;2023-12-29T01:31:44;1.90;;;1.80;;
76346;SDS011;73309;48.818;9.806;2023-12-29T01:34:10;2.33;;;1.90;;
76346;SDS011;73309;48.818;9.806;2023-12-29T01:36:37;2.43;;;1.80;;
76346;SDS011;73309;48.818;9.806;2023-12-29T01:39:02;1.83;;;1.73;;
76346;SDS011;73309;48.818;9.806;2023-12-29T01:41:28;2.00;;;1.80;;
76346;SDS011;73309;48.818;9.806;2023-12-29T01:44:14;1.80;;;1.70;;
76346;SDS011;73309;48.818;9.806;2023-12-29T01:46:44;1.83;;;1.73;;
76346;SDS011;73309;48.818;9.806;2023-12-29T01:49:11;1.87;;;1.77;;
76346;SDS011;73309;48.818;9.806;2023-12-29T01:51:38;1.60;;;1.50;;
76346;SDS011;73309;48.818;9.806;2023-12-29T01:54:03;1.90;;;1.80;;
76346;SDS011;73309;48.818;9.806;2023-12-29T01:56:29;2.10;;;1.60;;
76346;SDS011;73309;48.818;9.806;2023-12-29T01:58:55;2.10;;;1.90;;
76346;SDS011;73309;48.818;9.806;2023-12-29T02:01:20;1.93;;;1.83;;
76346;SDS011;73309;48.818;9.806;2023-12-29T02:03:46;1.70;;;1.60;;
76346;SDS011;73309;48.818;9.806;2023-12-29T02:06:12;1.63;;;1.53;;
76346;SDS011;73309;48.818;9.806;2023-12-29T02:08:39;2.13;;;1.80;;
76346;SDS011;73309;48.818;9.806;2023-12-29T02:11:05;2.00;;;1.67;;
76346;SDS011;73309;48.818;9.806;2023-12-29T02:13:31;2.00;;;1.80;;
76346;SDS011;73309;48.818;9.806;2023-12-29T02:15:58;1.90;;;1.63;;
76346;SDS011;73309;48.818;9.806;2023-12-29T02:18:30;2.50;;;1.90;;
76346;SDS011;73309;48.818;9.806;2023-12-29T02:20:58;2.90;;;1.70;;
76346;SDS011;73309;48.818;9.806;2023-12-29T02:23:23;1.70;;;1.60;;
76346;SDS011;73309;48.818;9.806;2023-12-29T02:25:50;1.80;;;1.70;;
76346;SDS011;73309;48.818;9.806;2023-12-29T02:28:19;2.03;;;1.87;;
76346;SDS011;73309;48.818;9.806;2023-12-29T02:30:51;2.37;;;1.90;;
76346;SDS011;73309;48.818;9.806;2023-12-29T02:33:22;2.63;;;1.80;;
76346;SDS011;73309;48.818;9.806;2023-12-29T02:35:48;2.20;;;2.00;;
76346;SDS011;73309;48.818;9.806;2023-12-29T02:38:16;2.10;;;1.90;;
76346;SDS011;73309;48.818;9.806;2023-12-29T02:40:41;2.10;;;1.90;;
76346;SDS011;73309;48.818;9.806;2023-12-29T02:43:09;2.40;;;2.20;;
76346;SDS011;73309;48.818;9.806;2023-12-29T02:45:35;1.93;;;1.73;;
76346;SDS011;73309;48.818;9.806;2023-12-29T02:48:00;2.87;;;1.90;;
76346;SDS011;73309;48.818;9.806;2023-12-29T02:50:26;2.10;;;1.90;;
76346;SDS011;73309;48.818;9.806;2023-12-29T02:52:51;2.03;;;1.87;;
76346;SDS011;73309;48.818;9.806;2023-12-29T02:55:16;1.90;;;1.80;;
76346;SDS011;73309;48.818;9.806;2023-12-29T02:57:42;2.10;;;1.90;;
76346;SDS011;73309;48.818;9.806;2023-12-29T03:00:09;1.90;;;1.80;;
76346;SDS011;73309;48.818;9.806;2023-12-29T03:02:35;2.20;;;2.00;;
76346;SDS011;73309;48.818;9.806;2023-12-29T03:05:00;2.47;;;2.27;;
76346;SDS011;73309;48.818;9.806;2023-12-29T03:07:26;1.87;;;1.77;;
76346;SDS011;73309;48.818;9.806;2023-12-29T03:09:51;1.90;;;1.80;;
76346;SDS011;73309;48.818;9.806;2023-12-29T03:12:16;2.10;;;1.90;;
76346;SDS011;73309;48.818;9.806;2023-12-29T03:14:42;2.23;;;2.00;;
76346;SDS011;73309;48.818;9.806;2023-12-29T03:17:11;2.10;;;1.90;;
76346;SDS011;73309;48.818;9.806;2023-12-29T03:19:36;2.30;;;2.10;;
76346;SDS011;73309;48.818;9.806;2023-12-29T03:22:02;2.20;;;1.87;;
76346;SDS011;73309;48.818;9.806;2023-12-29T03:24:27;2.10;;;1.90;;
76346;SDS011;73309;48.818;9.806;2023-12-29T03:26:53;2.10;;;1.90;;
76346;SDS011;73309;48.818;9.806;2023-12-29T03:29:18;2.20;;;2.00;;
76346;SDS011;73309;48.818;9.806;2023-12-29T03:31:44;3.23;;;2.00;;
76346;SDS011;73309;48.818;9.806;2023-12-29T03:34:10;2.20;;;2.00;;
76346;SDS011;73309;48.818;9.806;2023-12-29T03:36:36;2.10;;;1.90;;
76346;SDS011;73309;48.818;9.806;2023-12-29T03:39:01;2.40;;;2.20;;
76346;SDS011;73309;48.818;9.806;2023-12-29T03:41:27;2.73;;;2.10;;
76346;SDS011;73309;48.818;9.806;2023-12-29T03:43:52;2.20;;;2.00;;
76346;SDS011;73309;48.818;9.806;2023-12-29T03:46:18;2.53;;;2.20;;
76346;SDS011;73309;48.818;9.806;2023-12-29T03:48:43;2.60;;;2.07;;
76346;SDS011;73309;48.818;9.806;2023-12-29T03:51:10;2.40;;;2.20;;
76346;SDS011;73309;48.818;9.806;2023-12-29T03:53:35;2.23;;;1.97;;
76346;SDS011;73309;48.818;9.806;2023-12-29T03:56:03;2.40;;;2.20;;
76346;SDS011;73309;48.818;9.806;2023-12-29T03:58:29;1.90;;;1.80;;
76346;SDS011;73309;48.818;9.806;2023-12-29T04:00:54;2.37;;;2.17;;
76346;SDS011;73309;48.818;9.806;2023-12-29T04:03:20;2.30;;;2.10;;
76346;SDS011;73309;48.818;9.806;2023-12-29T04:05:45;2.27;;;2.07;;
76346;SDS011;73309;48.818;9.806;2023-12-29T04:08:12;2.43;;;2.23;;
76346;SDS011;73309;48.818;9.806;2023-12-29T04:10:38;2.20;;;2.00;;
76346;SDS011;73309;48.818;9.806;2023-12-29T04:13:03;2.40;;;2.20;;
76346;SDS011;73309;48.818;9.806;2023-12-29T04:15:28;2.57;;;2.00;;
76346;SDS011;73309;48.818;9.806;2023-12-29T04:17:54;2.23;;;2.03;;
76346;SDS011;73309;48.818;9.806;2023-12-29T04:20:19;4.07;;;2.33;;
76346;SDS011;73309;48.818;9.806;2023-12-29T04:22:45;2.23;;;2.03;;
76346;SDS011;73309;48.818;9.806;2023-12-29T04:25:13;2.43;;;2.23;;
76346;SDS011;73309;48.818;9.806;2023-12-29T04:27:39;2.70;;;2.00;;
76346;SDS011;73309;48.818;9.806;2023-12-29T04:30:04;2.50;;;2.30;;
76346;SDS011;73309;48.818;9.806;2023-12-29T04:32:31;2.60;;;2.20;;
76346;SDS011;73309;48.818;9.806;2023-12-29T04:34:56;2.00;;;1.90;;
76346;SDS011;73309;48.818;9.806;2023-12-29T04:37:21;2.40;;;2.20;;
76346;SDS011;73309;48.818;9.806;2023-12-29T04:39:47;2.47;;;2.27;;
76346;SDS011;73309;48.818;9.806;2023-12-29T04:42:13;2.33;;;2.13;;
76346;SDS011;73309;48.818;9.806;2023-12-29T04:44:39;2.17;;;1.97;;
76346;SDS011;73309;48.818;9.806;2023-12-29T04:47:04;2.27;;;2.07;;
76346;SDS011;73309;48.818;9.806;2023-12-29T04:49:30;2.50;;;2.30;;
76346;SDS011;73309;48.818;9.806;2023-12-29T04:51:55;2.30;;;2.10;;
76346;SDS011;73309;48.818;9.806;2023-12-29T04:54:21;2.10;;;1.90;;
76346;SDS011;73309;48.818;9.806;2023-12-29T04:56:46;2.23;;;2.03;;
76346;SDS011;73309;48.818;9.806;2023-12-29T04:59:13;2.20;;;1.87;;
76346;SDS011;73309;48.818;9.806;2023-12-29T05:01:38;2.40;;;2.20;;
76346;SDS011;73309;48.818;9.806;2023-12-29T05:04:03;2.57;;;2.17;;
76346;SDS011;73309;48.818;9.806;2023-12-29T05:06:29;2.20;;;2.03;;
76346;SDS011;73309;48.818;9.806;2023-12-29T05:08:54;2.07;;;1.90;;
76346;SDS011;73309;48.818;9.806;2023-12-29T05:11:20;2.57;;;2.37;;
76346;SDS011;73309;48.818;9.806;2023-12-29T05:13:45;3.33;;;2.40;;
76346;SDS011;73309;48.818;9.806;2023-12-29T05:16:12;2.30;;;2.10;;
76346;SDS011;73309;48.818;9.806;2023-12-29T05:18:38;2.40;;;2.20;;
76346;SDS011;73309;48.818;9.806;2023-12-29T05:21:03;2.53;;;2.33;;
76346;SDS011;73309;48.818;9.806;2023-12-29T05:23:30;2.30;;;2.10;;
76346;SDS011;73309;48.818;9.806;2023-12-29T05:25:55;2.30;;;2.10;;
76346;SDS011;73309;48.818;9.806;2023-12-29T05:28:21;2.87;;;2.20;;
76346;SDS011;73309;48.818;9.806;2023-12-29T05:30:46;2.40;;;2.20;;
76346;SDS011;73309;48.818;9.806;2023-12-29T05:33:13;2.37;;;2.17;;
76346;SDS011;73309;48.818;9.806;2023-12-29T05:35:38;2.20;;;2.00;;
76346;SDS011;73309;48.818;9.806;2023-12-29T05:38:04;2.40;;;2.20;;
76346;SDS011;73309;48.818;9.806;2023-12-29T05:40:29;2.30;;;2.10;;
76346;SDS011;73309;48.818;9.806;2023-12-29T05:42:54;2.53;;;2.10;;
76346;SDS011;73309;48.818;9.806;2023-12-29T05:45:20;2.17;;;1.97;;
76346;SDS011;73309;48.818;9.806;2023-12-29T05:47:45;2.47;;;2.27;;
76346;SDS011;73309;48.818;9.806;2023-12-29T05:50:12;2.30;;;2.10;;
76346;SDS011;73309;48.818;9.806;2023-12-29T05:52:38;2.10;;;2.00;;
76346;SDS011;73309;48.818;9.806;2023-12-29T05:55:03;2.20;;;2.00;;
76346;SDS011;73309;48.818;9.806;2023-12-29T05:57:29;2.17;;;2.03;;
76346;SDS011;73309;48.818;9.806;2023-12-29T05:59:54;2.30;;;2.10;;
76346;SDS011;73309;48.818;9.806;2023-12-29T06:02:20;2.50;;;2.30;;
76346;SDS011;73309;48.818;9.806;2023-12-29T06:04:45;2.30;;;2.10;;
76346;SDS011;73309;48.818;9.806;2023-12-29T06:07:12;2.40;;;1.80;;
76346;SDS011;73309;48.818;9.806;2023-12-29T06:09:38;2.10;;;1.90;;
76346;SDS011;73309;48.818;9.806;2023-12-29T06:12:03;2.20;;;2.00;;
76346;SDS011;73309;48.818;9.806;2023-12-29T06:14:29;2.33;;;2.13;;
76346;SDS011;73309;48.818;9.806;2023-12-29T06:16:55;1.90;;;1.80;;
76346;SDS011;73309;48.818;9.806;2023-12-29T06:19:20;2.20;;;2.00;;
76346;SDS011;73309;48.818;9.806;2023-12-29T06:21:46;2.33;;;2.13;;
76346;SDS011;73309;48.818;9.806;2023-12-29T06:24:12;2.30;;;2.10;;
76346;SDS011;73309;48.818;9.806;2023-12-29T06:26:38;2.20;;;2.00;;
76346;SDS011;73309;48.818;9.806;2023-12-29T06:29:03;2.30;;;2.10;;
76346;SDS011;73309;48.818;9.806;2023-12-29T06:31:29;1.90;;;1.80;;
76346;SDS011;73309;48.818;9.806;2023-12-29T06:33:54;2.00;;;1.90;;
76346;SDS011;73309;48.818;9.806;2023-12-29T06:36:20;2.30;;;1.87;;
76346;SDS011;73309;48.818;9.806;2023-12-29T06:38:45;2.40;;;2.20;;
76346;SDS011;73309;48.818;9.806;2023-12-29T06:41:12;2.27;;;2.07;;
76346;SDS011;73309;48.818;9.806;2023-12-29T06:43:37;2.23;;;2.03;;
76346;SDS011;73309;48.818;9.806;2023-12-29T06:46:03;2.20;;;2.00;;
76346;SDS011;73309;48.818;9.806;2023-12-29T06:48:28;2.17;;;1.97;;
76346;SDS011;73309;48.818;9.806;2023-12-29T06:50:54;2.30;;;2.10;;
76346;SDS011;73309;48.818;9.806;2023-12-29T06:53:19;2.07;;;1.87;;
76346;SDS011;73309;48.818;9.806;2023-12-29T06:55:45;2.20;;;2.00;;
76346;SDS011;73309;48.818;9.806;2023-12-29T06:58:11;2.27;;;2.07;;
76346;SDS011;73309;48.818;9.806;2023-12-29T07:00:37;1.83;;;1.73;;
76346;SDS011;73309;48.818;9.806;2023-12-29T07:03:02;2.00;;;1.90;;
76346;SDS011;73309;48.818;9.806;2023-12-29T07:05:28;2.47;;;2.27;;
76346;SDS011;73309;48.818;9.806;2023-12-29T07:07:53;1.97;;;1.83;;
76346;SDS011;73309;48.818;9.806;2023-12-29T07:10:19;2.07;;;1.87;;
76346;SDS011;73309;48.818;9.806;2023-12-29T07:12:44;2.23;;;1.83;;
76346;SDS011;73309;48.818;9.806;2023-12-29T07:15:11;2.10;;;1.90;;
76346;SDS011;73309;48.818;9.806;2023-12-29T07:17:37;2.23;;;2.03;;
76346;SDS011;73309;48.818;9.806;2023-12-29T07:20:02;2.10;;;1.90;;
76346;SDS011;73309;48.818;9.806;2023-12-29T07:22:28;2.30;;;2.10;;
76346;SDS011;73309;48.818;9.806;2023-12-29T07:24:53;2.37;;;2.17;;
76346;SDS011;73309;48.818;9.806;2023-12-29T07:27:19;2.10;;;1.90;;
76346;SDS011;73309;48.818;9.806;2023-12-29T07:29:44;2.40;;;2.20;;
76346;SDS011;73309;48.818;9.806;2023-12-29T07:32:11;1.97;;;1.87;;
76346;SDS011;73309;48.818;9.806;2023-12-29T07:34:37;2.10;;;1.90;;
76346;SDS011;73309;48.818;9.806;2023-12-29T07:37:02;2.17;;;1.97;;
76346;SDS011;73309;48.818;9.806;2023-12-29T07:39:28;1.93;;;1.80;;
76346;SDS011;73309;48.818;9.806;2023-12-29T07:41:53;2.30;;;2.10;;
76346;SDS011;73309;48.818;9.806;2023-12-29T07:44:19;2.30;;;2.10;;
76346;SDS011;73309;48.818;9.806;2023-12-29T07:46:44;2.33;;;2.13;;
76346;SDS011;73309;48.818;9.806;2023-12-29T07:49:11;2.10;;;2.00;;
76346;SDS011;73309;48.818;9.806;2023-12-29T07:51:38;2.40;;;2.20;;
76346;SDS011;73309;48.818;9.806;2023-12-29T07:54:04;2.57;;;1.90;;
76346;SDS011;73309;48.818;9.806;2023-12-29T07:56:30;2.10;;;1.90;;
76346;SDS011;73309;48.818;9.806;2023-12-29T07:58:55;2.20;;;2.00;;
76346;SDS011;73309;48.818;9.806;2023-12-29T08:01:20;2.00;;;1.90;;
76346;SDS011;73309;48.818;9.806;2023-12-29T08:03:46;2.13;;;1.93;;
76346;SDS011;73309;48.818;9.806;2023-12-29T08:06:13;2.37;;;2.00;;
76346;SDS011;73309;48.818;9.806;2023-12-29T08:08:38;2.03;;;1.93;;
76346;SDS011;73309;48.818;9.806;2023-12-29T08:11:03;2.77;;;1.70;;
76346;SDS011;73309;48.818;9.806;2023-12-29T08:13:29;2.60;;;2.10;;
76346;SDS011;73309;48.818;9.806;2023-12-29T08:15:54;2.10;;;1.90;;
76346;SDS011;73309;48.818;9.806;2023-12-29T08:18:20;2.30;;;2.10;;
76346;SDS011;73309;48.818;9.806;2023-12-29T08:20:45;2.00;;;1.80;;
76346;SDS011;73309;48.818;9.806;2023-12-29T08:23:12;2.30;;;2.10;;
76346;SDS011;73309;48.818;9.806;2023-12-29T08:25:37;2.07;;;1.87;;
76346;SDS011;73309;48.818;9.806;2023-12-29T08:28:03;2.37;;;2.10;;
76346;SDS011;73309;48.818;9.806;2023-12-29T08:30:28;2.10;;;1.90;;
76346;SDS011;73309;48.818;9.806;2023-12-29T08:32:54;2.23;;;2.00;;
76346;SDS011;73309;48.818;9.806;2023-12-29T08:35:19;1.87;;;1.70;;
76346;SDS011;73309;48.818;9.806;2023-12-29T08:37:45;2.10;;;1.80;;
76346;SDS011;73309;48.818;9.806;2023-12-29T08:40:12;1.93;;;1.80;;
76346;SDS011;73309;48.818;9.806;2023-12-29T08:42:37;2.10;;;1.90;;
76346;SDS011;73309;48.818;9.806;2023-12-29T08:45:03;1.90;;;1.77;;
76346;SDS011;73309;48.818;9.806;2023-12-29T08:47:29;2.20;;;2.00;;
76346;SDS011;73309;48.818;9.806;2023-12-29T08:49:54;2.10;;;1.90;;
76346;SDS011;73309;48.818;9.806;2023-12-29T08:52:20;2.00;;;1.80;;
76346;SDS011;73309;48.818;9.806;2023-12-29T08:54:45;2.40;;;2.10;;
76346;SDS011;73309;48.818;9.806;2023-12-29T08:57:12;2.07;;;1.87;;
76346;SDS011;73309;48.818;9.806;2023-12-29T08:59:37;1.80;;;1.70;;
76346;SDS011;73309;48.818;9.806;2023-12-29T09:02:03;2.13;;;1.87;;
76346;SDS011;73309;48.818;9.806;2023-12-29T09:04:28;2.07;;;1.90;;
76346;SDS011;73309;48.818;9.806;2023-12-29T09:06:53;2.07;;;1.70;;
76346;SDS011;73309;48.818;9.806;2023-12-29T09:09:19;1.90;;;1.80;;
76346;SDS011;73309;48.818;9.806;2023-12-29T09:11:44;1.80;;;1.70;;
76346;SDS011;73309;48.818;9.806;2023-12-29T09:14:11;1.77;;;1.60;;
76346;SDS011;73309;48.818;9.806;2023-12-29T09:16:37;1.77;;;1.67;;
76346;SDS011;73309;48.818;9.806;2023-12-29T09:19:02;1.80;;;1.70;;
76346;SDS011;73309;48.818;9.806;2023-12-29T09:21:28;2.30;;;1.97;;
76346;SDS011;73309;48.818;9.806;2023-12-29T09:23:53;2.00;;;1.80;;
76346;SDS011;73309;48.818;9.806;2023-12-29T09:26:19;2.13;;;1.90;;
76346;SDS011;73309;48.818;9.806;2023-12-29T09:28:44;1.80;;;1.70;;
76346;SDS011;73309;48.818;9.806;2023-12-29T09:31:11;2.20;;;2.00;;
76346;SDS011;73309;48.818;9.806;2023-12-29T09:33:36;2.07;;;1.97;;
76346;SDS011;73309;48.818;9.806;2023-12-29T09:36:02;2.40;;;1.87;;
76346;SDS011;73309;48.818;9.806;2023-12-29T09:38:28;2.13;;;1.83;;
76346;SDS011;73309;48.818;9.806;2023-12-29T09:40:53;2.13;;;1.93;;
76346;SDS011;73309;48.818;9.806;2023-12-29T09:43:24;2.20;;;1.97;;
76346;SDS011;73309;48.818;9.806;2023-12-29T09:45:50;2.03;;;1.80;;
76346;SDS011;73309;48.818;9.806;2023-12-29T09:48:18;2.00;;;1.80;;
76346;SDS011;73309;48.818;9.806;2023-12-29T09:50:47;2.00;;;1.90;;
76346;SDS011;73309;48.818;9.806;2023-12-29T09:53:15;1.80;;;1.70;;
76346;SDS011;73309;48.818;9.806;2023-12-29T09:55:42;2.13;;;1.93;;
76346;SDS011;73309;48.818;9.806;2023-12-29T09:58:08;1.70;;;1.60;;
76346;SDS011;73309;48.818;9.806;2023-12-29T10:00:37;1.90;;;1.80;;
76346;SDS011;73309;48.818;9.806;2023-12-29T10:03:04;1.97;;;1.80;;
76346;SDS011;73309;48.818;9.806;2023-12-29T10:05:32;1.80;;;1.60;;
76346;SDS011;73309;48.818;9.806;2023-12-29T10:07:57;2.20;;;2.00;;
76346;SDS011;73309;48.818;9.806;2023-12-29T10:10:26;1.80;;;1.60;;
76346;SDS011;73309;48.818;9.806;2023-12-29T10:12:53;1.80;;;1.70;;
76346;SDS011;73309;48.818;9.806;2023-12-29T10:15:19;1.87;;;1.77;;
76346;SDS011;73309;48.818;9.806;2023-12-29T10:17:51;1.97;;;1.77;;
76346;SDS011;73309;48.818;9.806;2023-12-29T10:20:22;2.00;;;1.67;;
76346;SDS011;73309;48.818;9.806;2023-12-29T10:22:58;1.90;;;1.70;;
76346;SDS011;73309;48.818;9.806;2023-12-29T10:25:29;2.00;;;1.80;;
76346;SDS011;73309;48.818;9.806;2023-12-29T10:27:55;1.73;;;1.60;;
76346;SDS011;73309;48.818;9.806;2023-12-29T10:30:21;1.93;;;1.60;;
76346;SDS011;73309;48.818;9.806;2023-12-29T10:32:49;1.70;;;1.60;;
76346;SDS011;73309;48.818;9.806;2023-12-29T10:35:14;2.00;;;1.77;;
76346;SDS011;73309;48.818;9.806;2023-12-29T10:37:40;1.87;;;1.70;;
76346;SDS011;73309;48.818;9.806;2023-12-29T10:40:07;1.60;;;1.50;;
76346;SDS011;73309;48.818;9.806;2023-12-29T10:42:33;1.80;;;1.70;;
76346;SDS011;73309;48.818;9.806;2023-12-29T10:45:05;1.70;;;1.60;;
76346;SDS011;73309;48.818;9.806;2023-12-29T10:47:31;1.93;;;1.60;;
76346;SDS011;73309;48.818;9.806;2023-12-29T10:49:58;1.80;;;1.70;;
76346;SDS011;73309;48.818;9.806;2023-12-29T10:52:24;1.50;;;1.40;;
76346;SDS011;73309;48.818;9.806;2023-12-29T10:54:49;1.67;;;1.57;;
76346;SDS011;73309;48.818;9.806;2023-12-29T10:57:27;1.93;;;1.60;;
76346;SDS011;73309;48.818;9.806;2023-12-29T10:59:54;1.80;;;1.70;;
76346;SDS011;73309;48.818;9.806;2023-12-29T11:02:19;2.47;;;1.70;;
76346;SDS011;73309;48.818;9.806;2023-12-29T11:04:45;1.63;;;1.53;;
76346;SDS011;73309;48.818;9.806;2023-12-29T11:07:11;1.70;;;1.60;;
76346;SDS011;73309;48.818;9.806;2023-12-29T11:09:37;1.70;;;1.60;;
76346;SDS011;73309;48.818;9.806;2023-12-29T11:12:03;1.67;;;1.57;;
76346;SDS011;73309;48.818;9.806;2023-12-29T11:14:31;1.87;;;1.60;;
76346;SDS011;73309;48.818;9.806;2023-12-29T11:16:56;2.03;;;1.80;;
76346;SDS011;73309;48.818;9.806;2023-12-29T11:19:22;1.50;;;1.40;;
76346;SDS011;73309;48.818;9.806;2023-12-29T11:21:48;1.53;;;1.43;;
76346;SDS011;73309;48.818;9.806;2023-12-29T11:24:16;1.60;;;1.50;;
76346;SDS011;73309;48.818;9.806;2023-12-29T11:26:42;1.50;;;1.40;;
76346;SDS011;73309;48.818;9.806;2023-12-29T11:29:09;1.37;;;1.27;;
76346;SDS011;73309;48.818;9.806;2023-12-29T11:31:37;1.40;;;1.30;;
76346;SDS011;73309;48.818;9.806;2023-12-29T11:34:05;2.20;;;1.37;;
76346;SDS011;73309;48.818;9.806;2023-12-29T11:36:34;1.50;;;1.40;;
76346;SDS011;73309;48.818;9.806;2023-12-29T11:39:06;1.50;;;1.40;;
76346;SDS011;73309;48.818;9.806;2023-12-29T11:41:43;1.60;;;1.30;;
76346;SDS011;73309;48.818;9.806;2023-12-29T11:44:16;1.60;;;1.50;;
76346;SDS011;73309;48.818;9.806;2023-12-29T11:46:51;1.87;;;1.60;;
76346;SDS011;73309;48.818;9.806;2023-12-29T11:49:16;1.43;;;1.30;;
76346;SDS011;73309;48.818;9.806;2023-12-29T11:51:42;1.53;;;1.43;;
76346;SDS011;73309;48.818;9.806;2023-12-29T11:54:08;1.50;;;1.40;;
76346;SDS011;73309;48.818;9.806;2023-12-29T11:56:34;1.40;;;1.20;;
76346;SDS011;73309;48.818;9.806;2023-12-29T11:59:11;1.40;;;1.30;;
76346;SDS011;73309;48.818;9.806;2023-12-29T12:01:40;1.60;;;1.50;;
76346;SDS011;73309;48.818;9.806;2023-12-29T12:07:00;1.47;;;1.30;;
76346;SDS011;73309;48.818;9.806;2023-12-29T12:09:26;2.03;;;1.40;;
76346;SDS011;73309;48.818;9.806;2023-12-29T12:11:51;1.43;;;1.20;;
76346;SDS011;73309;48.818;9.806;2023-12-29T12:17:29;1.73;;;1.50;;
76346;SDS011;73309;48.818;9.806;2023-12-29T12:19:58;1.43;;;1.30;;
76346;SDS011;73309;48.818;9.806;2023-12-29T12:22:24;1.60;;;1.37;;
76346;SDS011;73309;48.818;9.806;2023-12-29T12:24:54;1.40;;;1.30;;
76346;SDS011;73309;48.818;9.806;2023-12-29T12:27:20;1.40;;;1.30;;
76346;SDS011;73309;48.818;9.806;2023-12-29T12:29:47;1.40;;;1.30;;
76346;SDS011;73309;48.818;9.806;2023-12-29T12:32:15;1.63;;;1.37;;
76346;SDS011;73309;48.818;9.806;2023-12-29T12:34:41;1.40;;;1.30;;
76346;SDS011;73309;48.818;9.806;2023-12-29T12:37:08;1.37;;;1.27;;
76346;SDS011;73309;48.818;9.806;2023-12-29T12:39:39;2.10;;;1.30;;
76346;SDS011;73309;48.818;9.806;2023-12-29T12:42:05;2.17;;;1.50;;
76346;SDS011;73309;48.818;9.806;2023-12-29T12:44:30;1.33;;;1.23;;
76346;SDS011;73309;48.818;9.806;2023-12-29T12:46:59;1.60;;;1.20;;
76346;SDS011;73309;48.818;9.806;2023-12-29T12:49:31;1.50;;;1.40;;
76346;SDS011;73309;48.818;9.806;2023-12-29T12:51:57;1.40;;;1.30;;
76346;SDS011;73309;48.818;9.806;2023-12-29T12:54:24;2.07;;;1.60;;
76346;SDS011;73309;48.818;9.806;2023-12-29T12:56:49;1.60;;;1.50;;
76346;SDS011;73309;48.818;9.806;2023-12-29T12:59:15;1.40;;;1.30;;
76346;SDS011;73309;48.818;9.806;2023-12-29T13:01:41;1.60;;;1.47;;
76346;SDS011;73309;48.818;9.806;2023-12-29T13:04:06;1.77;;;1.40;;
76346;SDS011;73309;48.818;9.806;2023-12-29T13:06:32;1.50;;;1.40;;
76346;SDS011;73309;48.818;9.806;2023-12-29T13:08:58;1.50;;;1.40;;
76346;SDS011;73309;48.818;9.806;2023-12-29T13:11:25;1.50;;;1.40;;
76346;SDS011;73309;48.818;9.806;2023-12-29T13:13:51;1.97;;;1.40;;
76346;SDS011;73309;48.818;9.806;2023-12-29T13:16:17;1.63;;;1.30;;
76346;SDS011;73309;48.818;9.806;2023-12-29T13:18:42;1.40;;;1.30;;
76346;SDS011;73309;48.818;9.806;2023-12-29T13:21:07;1.40;;;1.30;;
76346;SDS011;73309;48.818;9.806;2023-12-29T13:23:33;1.40;;;1.30;;
76346;SDS011;73309;48.818;9.806;2023-12-29T13:25:59;1.50;;;1.40;;
76346;SDS011;73309;48.818;9.806;2023-12-29T13:28:28;1.30;;;1.20;;
76346;SDS011;73309;48.818;9.806;2023-12-29T13:30:56;1.50;;;1.40;;
76346;SDS011;73309;48.818;9.806;2023-12-29T13:33:24;1.50;;;1.40;;
76346;SDS011;73309;48.818;9.806;2023-12-29T13:35:56;1.47;;;1.37;;
76346;SDS011;73309;48.818;9.806;2023-12-29T13:38:36;1.40;;;1.30;;
76346;SDS011;73309;48.818;9.806;2023-12-29T13:41:07;1.50;;;1.40;;
76346;SDS011;73309;48.818;9.806;2023-12-29T13:43:35;2.00;;;1.50;;
76346;SDS011;73309;48.818;9.806;2023-12-29T13:46:03;1.50;;;1.40;;
76346;SDS011;73309;48.818;9.806;2023-12-29T13:48:29;1.40;;;1.30;;
76346;SDS011;73309;48.818;9.806;2023-12-29T13:50:57;1.53;;;1.30;;
76346;SDS011;73309;48.818;9.806;2023-12-29T13:53:22;1.23;;;1.13;;
76346;SDS011;73309;48.818;9.806;2023-12-29T13:55:48;1.53;;;1.40;;
76346;SDS011;73309;48.818;9.806;2023-12-29T13:58:15;1.40;;;1.30;;
76346;SDS011;73309;48.818;9.806;2023-12-29T14:00:42;1.60;;;1.40;;
76346;SDS011;73309;48.818;9.806;2023-12-29T14:03:09;1.40;;;1.30;;
76346;SDS011;73309;48.818;9.806;2023-12-29T14:05:43;1.50;;;1.40;;
76346;SDS011;73309;48.818;9.806;2023-12-29T14:08:16;1.30;;;1.20;;
76346;SDS011;73309;48.818;9.806;2023-12-29T14:10:43;1.60;;;1.40;;
76346;SDS011;73309;48.818;9.806;2023-12-29T14:13:09;1.60;;;1.43;;
76346;SDS011;73309;48.818;9.806;2023-12-29T14:15:36;1.37;;;1.27;;
76346;SDS011;73309;48.818;9.806;2023-12-29T14:18:03;1.50;;;1.40;;
76346;SDS011;73309;48.818;9.806;2023-12-29T14:20:35;1.33;;;1.23;;
76346;SDS011;73309;48.818;9.806;2023-12-29T14:23:01;1.60;;;1.50;;
76346;SDS011;73309;48.818;9.806;2023-12-29T14:25:27;1.40;;;1.30;;
76346;SDS011;73309;48.818;9.806;2023-12-29T14:27:52;1.40;;;1.30;;
76346;SDS011;73309;48.818;9.806;2023-12-29T14:30:18;1.40;;;1.30;;
76346;SDS011;73309;48.818;9.806;2023-12-29T14:32:43;1.33;;;1.23;;
76346;SDS011;73309;48.818;9.806;2023-12-29T14:35:10;1.40;;;1.30;;
76346;SDS011;73309;48.818;9.806;2023-12-29T14:37:37;2.20;;;1.60;;
76346;SDS011;73309;48.818;9.806;2023-12-29T14:40:03;1.43;;;1.33;;
76346;SDS011;73309;48.818;9.806;2023-12-29T14:42:29;1.40;;;1.30;;
76346;SDS011;73309;48.818;9.806;2023-12-29T14:44:54;1.43;;;1.33;;
76346;SDS011;73309;48.818;9.806;2023-12-29T14:47:20;1.40;;;1.30;;
76346;SDS011;73309;48.818;9.806;2023-12-29T14:49:45;1.40;;;1.30;;